sensor_id;sensor_type;location;lat;lon;timestamp;P1;durP1;ratioP1;P2;durP2;ratioP2
53151;SDS011;39234;53.158;6.322;2023-07-16T00:02:06;11.65;;;3.08;;
53151;SDS011;39234;53.158;6.322;2023-07-16T00:04:32;14.35;;;3.17;;
53151;SDS011;39234;53.158;6.322;2023-07-16T00:07:01;13.50;;;2.83;;
53151;SDS011;39234;53.158;6.322;2023-07-16T00:09:27;14.45;;;3.53;;
53151;SDS011;39234;53.158;6.322;2023-07-16T00:11:53;12.32;;;3.47;;
53151;SDS011;39234;53.158;6.322;2023-07-16T00:14:19;13.35;;;3.20;;
53151;SDS011;39234;53.158;6.322;2023-07-16T00:16:45;12.45;;;2.97;;
53151;SDS011;39234;53.158;6.322;2023-07-16T00:19:11;14.50;;;3.00;;
53151;SDS011;39234;53.158;6.322;2023-07-16T00:21:37;15.48;;;3.38;;
53151;SDS011;39234;53.158;6.322;2023-07-16T00:24:05;11.75;;;3.22;;
53151;SDS011;39234;53.158;6.322;2023-07-16T00:26:30;9.52;;;3.13;;
53151;SDS011;39234;53.158;6.322;2023-07-16T00:28:56;9.15;;;3.17;;
53151;SDS011;39234;53.158;6.322;2023-07-16T00:31:22;14.23;;;3.25;;
53151;SDS011;39234;53.158;6.322;2023-07-16T00:33:47;10.90;;;2.88;;
53151;SDS011;39234;53.158;6.322;2023-07-16T00:36:13;11.07;;;3.20;;
53151;SDS011;39234;53.158;6.322;2023-07-16T00:38:39;7.85;;;2.97;;
53151;SDS011;39234;53.158;6.322;2023-07-16T00:41:08;9.48;;;2.72;;
53151;SDS011;39234;53.158;6.322;2023-07-16T00:43:33;10.18;;;3.17;;
53151;SDS011;39234;53.158;6.322;2023-07-16T00:45:59;14.68;;;3.13;;
53151;SDS011;39234;53.158;6.322;2023-07-16T00:48:25;10.43;;;3.20;;
53151;SDS011;39234;53.158;6.322;2023-07-16T00:50:52;14.13;;;4.07;;
53151;SDS011;39234;53.158;6.322;2023-07-16T00:53:19;13.93;;;3.13;;
53151;SDS011;39234;53.158;6.322;2023-07-16T00:55:45;12.95;;;3.85;;
53151;SDS011;39234;53.158;6.322;2023-07-16T00:58:11;16.60;;;3.58;;
53151;SDS011;39234;53.158;6.322;2023-07-16T01:00:38;7.85;;;2.55;;
53151;SDS011;39234;53.158;6.322;2023-07-16T01:03:09;13.80;;;3.67;;
53151;SDS011;39234;53.158;6.322;2023-07-16T01:08:22;13.40;;;3.75;;
53151;SDS011;39234;53.158;6.322;2023-07-16T01:13:19;15.07;;;3.65;;
53151;SDS011;39234;53.158;6.322;2023-07-16T01:15:45;16.30;;;3.80;;
53151;SDS011;39234;53.158;6.322;2023-07-16T01:18:11;11.27;;;2.75;;
53151;SDS011;39234;53.158;6.322;2023-07-16T01:20:37;9.15;;;3.13;;
53151;SDS011;39234;53.158;6.322;2023-07-16T01:23:08;12.90;;;3.50;;
53151;SDS011;39234;53.158;6.322;2023-07-16T01:28:53;14.73;;;3.45;;
53151;SDS011;39234;53.158;6.322;2023-07-16T01:31:58;9.68;;;3.17;;
53151;SDS011;39234;53.158;6.322;2023-07-16T01:34:26;13.27;;;2.90;;
53151;SDS011;39234;53.158;6.322;2023-07-16T01:36:55;10.45;;;3.20;;
53151;SDS011;39234;53.158;6.322;2023-07-16T01:39:21;8.95;;;2.50;;
53151;SDS011;39234;53.158;6.322;2023-07-16T01:41:47;11.95;;;2.53;;
53151;SDS011;39234;53.158;6.322;2023-07-16T01:44:13;14.50;;;3.60;;
53151;SDS011;39234;53.158;6.322;2023-07-16T01:46:38;16.50;;;3.95;;
53151;SDS011;39234;53.158;6.322;2023-07-16T01:49:04;12.52;;;3.22;;
53151;SDS011;39234;53.158;6.322;2023-07-16T01:51:30;9.73;;;2.70;;
53151;SDS011;39234;53.158;6.322;2023-07-16T01:53:56;13.30;;;2.97;;
53151;SDS011;39234;53.158;6.322;2023-07-16T01:56:21;12.52;;;3.22;;
53151;SDS011;39234;53.158;6.322;2023-07-16T01:58:47;8.88;;;2.53;;
53151;SDS011;39234;53.158;6.322;2023-07-16T02:01:13;7.47;;;2.45;;
53151;SDS011;39234;53.158;6.322;2023-07-16T02:03:38;9.63;;;2.75;;
53151;SDS011;39234;53.158;6.322;2023-07-16T02:06:04;14.27;;;2.97;;
53151;SDS011;39234;53.158;6.322;2023-07-16T02:08:30;10.73;;;2.50;;
53151;SDS011;39234;53.158;6.322;2023-07-16T02:10:55;11.27;;;2.53;;
53151;SDS011;39234;53.158;6.322;2023-07-16T02:13:21;9.52;;;2.42;;
53151;SDS011;39234;53.158;6.322;2023-07-16T02:15:47;8.70;;;2.65;;
53151;SDS011;39234;53.158;6.322;2023-07-16T02:18:12;8.02;;;2.72;;
53151;SDS011;39234;53.158;6.322;2023-07-16T02:20:38;9.55;;;2.95;;
53151;SDS011;39234;53.158;6.322;2023-07-16T02:23:04;10.25;;;3.00;;
53151;SDS011;39234;53.158;6.322;2023-07-16T02:25:31;12.52;;;2.95;;
53151;SDS011;39234;53.158;6.322;2023-07-16T02:27:58;8.63;;;2.67;;
53151;SDS011;39234;53.158;6.322;2023-07-16T02:30:23;12.40;;;3.42;;
53151;SDS011;39234;53.158;6.322;2023-07-16T02:32:49;11.80;;;3.38;;
53151;SDS011;39234;53.158;6.322;2023-07-16T02:35:15;16.48;;;3.55;;
53151;SDS011;39234;53.158;6.322;2023-07-16T02:37:40;10.20;;;3.72;;
53151;SDS011;39234;53.158;6.322;2023-07-16T02:40:06;16.30;;;4.32;;
53151;SDS011;39234;53.158;6.322;2023-07-16T02:42:33;12.30;;;3.80;;
53151;SDS011;39234;53.158;6.322;2023-07-16T02:44:58;11.63;;;3.30;;
53151;SDS011;39234;53.158;6.322;2023-07-16T02:47:24;11.20;;;3.78;;
53151;SDS011;39234;53.158;6.322;2023-07-16T02:49:53;12.32;;;3.60;;
53151;SDS011;39234;53.158;6.322;2023-07-16T02:52:18;11.05;;;3.47;;
53151;SDS011;39234;53.158;6.322;2023-07-16T02:54:44;12.73;;;3.63;;
53151;SDS011;39234;53.158;6.322;2023-07-16T02:57:10;13.68;;;4.30;;
53151;SDS011;39234;53.158;6.322;2023-07-16T02:59:36;15.07;;;4.20;;
53151;SDS011;39234;53.158;6.322;2023-07-16T03:02:01;11.45;;;3.70;;
53151;SDS011;39234;53.158;6.322;2023-07-16T03:04:27;14.10;;;3.70;;
53151;SDS011;39234;53.158;6.322;2023-07-16T03:06:53;13.75;;;3.88;;
53151;SDS011;39234;53.158;6.322;2023-07-16T03:09:19;13.63;;;4.00;;
53151;SDS011;39234;53.158;6.322;2023-07-16T03:11:44;10.98;;;3.78;;
53151;SDS011;39234;53.158;6.322;2023-07-16T03:14:10;12.57;;;3.60;;
53151;SDS011;39234;53.158;6.322;2023-07-16T03:16:36;12.05;;;4.53;;
53151;SDS011;39234;53.158;6.322;2023-07-16T03:19:01;9.68;;;3.42;;
53151;SDS011;39234;53.158;6.322;2023-07-16T03:21:27;11.05;;;3.85;;
53151;SDS011;39234;53.158;6.322;2023-07-16T03:23:53;13.43;;;4.07;;
53151;SDS011;39234;53.158;6.322;2023-07-16T03:26:18;16.27;;;4.00;;
53151;SDS011;39234;53.158;6.322;2023-07-16T03:28:44;16.48;;;4.28;;
53151;SDS011;39234;53.158;6.322;2023-07-16T03:31:10;14.40;;;3.97;;
53151;SDS011;39234;53.158;6.322;2023-07-16T03:33:35;13.10;;;4.38;;
53151;SDS011;39234;53.158;6.322;2023-07-16T03:36:01;12.57;;;3.65;;
53151;SDS011;39234;53.158;6.322;2023-07-16T03:38:27;11.82;;;4.07;;
53151;SDS011;39234;53.158;6.322;2023-07-16T03:40:53;13.90;;;4.10;;
53151;SDS011;39234;53.158;6.322;2023-07-16T03:43:18;19.25;;;4.80;;
53151;SDS011;39234;53.158;6.322;2023-07-16T03:45:44;11.50;;;4.13;;
53151;SDS011;39234;53.158;6.322;2023-07-16T03:48:10;15.00;;;5.00;;
53151;SDS011;39234;53.158;6.322;2023-07-16T03:50:36;12.60;;;3.95;;
53151;SDS011;39234;53.158;6.322;2023-07-16T03:53:01;12.63;;;4.55;;
53151;SDS011;39234;53.158;6.322;2023-07-16T03:55:28;11.52;;;3.75;;
53151;SDS011;39234;53.158;6.322;2023-07-16T03:57:54;16.23;;;4.70;;
53151;SDS011;39234;53.158;6.322;2023-07-16T04:00:20;10.18;;;3.70;;
53151;SDS011;39234;53.158;6.322;2023-07-16T04:02:46;16.77;;;4.57;;
53151;SDS011;39234;53.158;6.322;2023-07-16T04:05:12;13.70;;;4.82;;
53151;SDS011;39234;53.158;6.322;2023-07-16T04:07:37;14.80;;;4.60;;
53151;SDS011;39234;53.158;6.322;2023-07-16T04:10:03;11.32;;;4.30;;
53151;SDS011;39234;53.158;6.322;2023-07-16T04:12:29;16.92;;;4.85;;
53151;SDS011;39234;53.158;6.322;2023-07-16T04:14:58;15.10;;;5.20;;
53151;SDS011;39234;53.158;6.322;2023-07-16T04:17:24;14.20;;;4.65;;
53151;SDS011;39234;53.158;6.322;2023-07-16T04:19:50;16.95;;;5.57;;
53151;SDS011;39234;53.158;6.322;2023-07-16T04:22:16;12.55;;;4.50;;
53151;SDS011;39234;53.158;6.322;2023-07-16T04:24:42;13.27;;;5.28;;
53151;SDS011;39234;53.158;6.322;2023-07-16T04:27:07;16.65;;;4.97;;
53151;SDS011;39234;53.158;6.322;2023-07-16T04:29:33;13.55;;;4.35;;
53151;SDS011;39234;53.158;6.322;2023-07-16T04:31:59;14.55;;;5.25;;
53151;SDS011;39234;53.158;6.322;2023-07-16T04:34:24;13.13;;;4.95;;
53151;SDS011;39234;53.158;6.322;2023-07-16T04:36:50;14.32;;;4.75;;
53151;SDS011;39234;53.158;6.322;2023-07-16T04:39:16;11.30;;;4.95;;
53151;SDS011;39234;53.158;6.322;2023-07-16T04:41:42;12.35;;;4.78;;
53151;SDS011;39234;53.158;6.322;2023-07-16T04:44:07;13.98;;;5.38;;
53151;SDS011;39234;53.158;6.322;2023-07-16T04:46:33;14.88;;;5.68;;
53151;SDS011;39234;53.158;6.322;2023-07-16T04:48:59;15.57;;;5.28;;
53151;SDS011;39234;53.158;6.322;2023-07-16T04:51:25;15.75;;;6.63;;
53151;SDS011;39234;53.158;6.322;2023-07-16T04:53:51;15.20;;;5.75;;
53151;SDS011;39234;53.158;6.322;2023-07-16T04:56:17;15.45;;;5.72;;
53151;SDS011;39234;53.158;6.322;2023-07-16T04:58:42;14.63;;;5.43;;
53151;SDS011;39234;53.158;6.322;2023-07-16T05:01:08;14.35;;;5.38;;
53151;SDS011;39234;53.158;6.322;2023-07-16T05:03:35;12.73;;;4.88;;
53151;SDS011;39234;53.158;6.322;2023-07-16T05:06:01;14.65;;;5.15;;
53151;SDS011;39234;53.158;6.322;2023-07-16T05:08:27;13.23;;;5.60;;
53151;SDS011;39234;53.158;6.322;2023-07-16T05:10:52;17.80;;;5.82;;
53151;SDS011;39234;53.158;6.322;2023-07-16T05:13:18;12.90;;;4.97;;
53151;SDS011;39234;53.158;6.322;2023-07-16T05:15:44;13.48;;;5.20;;
53151;SDS011;39234;53.158;6.322;2023-07-16T05:18:10;9.93;;;5.22;;
53151;SDS011;39234;53.158;6.322;2023-07-16T05:20:36;14.57;;;5.10;;
53151;SDS011;39234;53.158;6.322;2023-07-16T05:23:01;16.15;;;4.90;;
53151;SDS011;39234;53.158;6.322;2023-07-16T05:25:27;11.85;;;5.57;;
53151;SDS011;39234;53.158;6.322;2023-07-16T05:27:53;15.63;;;5.10;;
53151;SDS011;39234;53.158;6.322;2023-07-16T05:30:19;12.70;;;4.75;;
53151;SDS011;39234;53.158;6.322;2023-07-16T05:32:45;16.75;;;5.20;;
53151;SDS011;39234;53.158;6.322;2023-07-16T05:35:11;10.50;;;4.60;;
53151;SDS011;39234;53.158;6.322;2023-07-16T05:37:37;13.10;;;4.25;;
53151;SDS011;39234;53.158;6.322;2023-07-16T05:40:03;11.70;;;4.53;;
53151;SDS011;39234;53.158;6.322;2023-07-16T05:42:29;11.00;;;4.70;;
53151;SDS011;39234;53.158;6.322;2023-07-16T05:44:54;16.08;;;4.65;;
53151;SDS011;39234;53.158;6.322;2023-07-16T05:47:20;11.45;;;4.43;;
53151;SDS011;39234;53.158;6.322;2023-07-16T05:49:46;12.98;;;4.82;;
53151;SDS011;39234;53.158;6.322;2023-07-16T05:52:12;14.48;;;4.28;;
53151;SDS011;39234;53.158;6.322;2023-07-16T05:54:37;10.57;;;3.53;;
53151;SDS011;39234;53.158;6.322;2023-07-16T05:57:03;10.55;;;4.13;;
53151;SDS011;39234;53.158;6.322;2023-07-16T05:59:29;12.32;;;4.53;;
53151;SDS011;39234;53.158;6.322;2023-07-16T06:01:59;9.05;;;3.72;;
53151;SDS011;39234;53.158;6.322;2023-07-16T06:04:25;14.15;;;4.72;;
53151;SDS011;39234;53.158;6.322;2023-07-16T06:06:50;14.13;;;4.15;;
53151;SDS011;39234;53.158;6.322;2023-07-16T06:09:16;16.55;;;5.18;;
53151;SDS011;39234;53.158;6.322;2023-07-16T06:11:42;13.60;;;4.47;;
53151;SDS011;39234;53.158;6.322;2023-07-16T06:14:10;13.13;;;4.80;;
53151;SDS011;39234;53.158;6.322;2023-07-16T06:16:36;12.77;;;4.30;;
53151;SDS011;39234;53.158;6.322;2023-07-16T06:19:02;12.23;;;4.65;;
53151;SDS011;39234;53.158;6.322;2023-07-16T06:21:28;12.07;;;4.65;;
53151;SDS011;39234;53.158;6.322;2023-07-16T06:23:53;14.30;;;4.93;;
53151;SDS011;39234;53.158;6.322;2023-07-16T06:26:19;10.73;;;4.68;;
53151;SDS011;39234;53.158;6.322;2023-07-16T06:28:45;12.63;;;4.45;;
53151;SDS011;39234;53.158;6.322;2023-07-16T06:31:14;12.82;;;5.28;;
53151;SDS011;39234;53.158;6.322;2023-07-16T06:33:40;12.50;;;4.68;;
53151;SDS011;39234;53.158;6.322;2023-07-16T06:36:06;15.45;;;5.03;;
53151;SDS011;39234;53.158;6.322;2023-07-16T06:38:31;12.63;;;4.85;;
53151;SDS011;39234;53.158;6.322;2023-07-16T06:40:57;12.98;;;4.90;;
53151;SDS011;39234;53.158;6.322;2023-07-16T06:43:23;15.40;;;4.57;;
53151;SDS011;39234;53.158;6.322;2023-07-16T06:45:49;11.85;;;4.90;;
53151;SDS011;39234;53.158;6.322;2023-07-16T06:48:18;16.65;;;4.90;;
53151;SDS011;39234;53.158;6.322;2023-07-16T06:50:44;11.93;;;4.70;;
53151;SDS011;39234;53.158;6.322;2023-07-16T06:53:10;15.02;;;5.53;;
53151;SDS011;39234;53.158;6.322;2023-07-16T06:55:36;13.95;;;5.05;;
53151;SDS011;39234;53.158;6.322;2023-07-16T06:58:02;13.90;;;5.20;;
53151;SDS011;39234;53.158;6.322;2023-07-16T07:00:28;13.95;;;5.05;;
53151;SDS011;39234;53.158;6.322;2023-07-16T07:02:54;11.60;;;4.80;;
53151;SDS011;39234;53.158;6.322;2023-07-16T07:05:20;13.18;;;5.00;;
53151;SDS011;39234;53.158;6.322;2023-07-16T07:07:46;10.48;;;4.90;;
53151;SDS011;39234;53.158;6.322;2023-07-16T07:10:12;19.30;;;5.22;;
53151;SDS011;39234;53.158;6.322;2023-07-16T07:12:38;15.52;;;4.75;;
53151;SDS011;39234;53.158;6.322;2023-07-16T07:15:05;14.77;;;5.38;;
53151;SDS011;39234;53.158;6.322;2023-07-16T07:17:34;13.95;;;5.55;;
53151;SDS011;39234;53.158;6.322;2023-07-16T07:20:00;13.70;;;5.40;;
53151;SDS011;39234;53.158;6.322;2023-07-16T07:22:26;17.15;;;5.78;;
53151;SDS011;39234;53.158;6.322;2023-07-16T07:24:52;12.20;;;5.53;;
53151;SDS011;39234;53.158;6.322;2023-07-16T07:27:18;15.27;;;5.30;;
53151;SDS011;39234;53.158;6.322;2023-07-16T07:29:44;11.00;;;5.40;;
53151;SDS011;39234;53.158;6.322;2023-07-16T07:32:11;15.60;;;5.75;;
53151;SDS011;39234;53.158;6.322;2023-07-16T07:34:38;10.65;;;5.25;;
53151;SDS011;39234;53.158;6.322;2023-07-16T07:37:04;15.02;;;6.70;;
53151;SDS011;39234;53.158;6.322;2023-07-16T07:39:30;10.95;;;5.30;;
53151;SDS011;39234;53.158;6.322;2023-07-16T07:41:56;17.25;;;5.68;;
53151;SDS011;39234;53.158;6.322;2023-07-16T07:44:21;10.57;;;5.20;;
53151;SDS011;39234;53.158;6.322;2023-07-16T07:46:47;13.05;;;4.90;;
53151;SDS011;39234;53.158;6.322;2023-07-16T07:49:13;13.02;;;5.20;;
53151;SDS011;39234;53.158;6.322;2023-07-16T07:51:38;12.73;;;6.63;;
53151;SDS011;39234;53.158;6.322;2023-07-16T07:54:04;12.85;;;5.55;;
53151;SDS011;39234;53.158;6.322;2023-07-16T07:56:30;12.32;;;5.25;;
53151;SDS011;39234;53.158;6.322;2023-07-16T07:58:56;11.57;;;4.80;;
53151;SDS011;39234;53.158;6.322;2023-07-16T08:01:21;14.13;;;5.13;;
53151;SDS011;39234;53.158;6.322;2023-07-16T08:03:47;14.90;;;5.22;;
53151;SDS011;39234;53.158;6.322;2023-07-16T08:06:13;13.48;;;5.65;;
53151;SDS011;39234;53.158;6.322;2023-07-16T08:08:38;10.73;;;5.20;;
53151;SDS011;39234;53.158;6.322;2023-07-16T08:11:04;12.63;;;5.10;;
53151;SDS011;39234;53.158;6.322;2023-07-16T08:13:30;10.82;;;4.90;;
53151;SDS011;39234;53.158;6.322;2023-07-16T08:15:57;11.95;;;5.15;;
53151;SDS011;39234;53.158;6.322;2023-07-16T08:18:22;14.30;;;5.57;;
53151;SDS011;39234;53.158;6.322;2023-07-16T08:20:48;12.88;;;5.65;;
53151;SDS011;39234;53.158;6.322;2023-07-16T08:23:14;11.68;;;5.65;;
53151;SDS011;39234;53.158;6.322;2023-07-16T08:25:39;13.88;;;5.50;;
53151;SDS011;39234;53.158;6.322;2023-07-16T08:28:05;14.48;;;5.53;;
53151;SDS011;39234;53.158;6.322;2023-07-16T08:30:32;15.27;;;5.80;;
53151;SDS011;39234;53.158;6.322;2023-07-16T08:32:58;13.00;;;5.50;;
53151;SDS011;39234;53.158;6.322;2023-07-16T08:35:24;16.15;;;6.18;;
53151;SDS011;39234;53.158;6.322;2023-07-16T08:37:50;12.90;;;5.70;;
53151;SDS011;39234;53.158;6.322;2023-07-16T08:40:15;12.88;;;5.72;;
53151;SDS011;39234;53.158;6.322;2023-07-16T08:42:44;14.55;;;6.25;;
53151;SDS011;39234;53.158;6.322;2023-07-16T08:45:11;13.63;;;5.55;;
53151;SDS011;39234;53.158;6.322;2023-07-16T08:47:37;14.20;;;5.45;;
53151;SDS011;39234;53.158;6.322;2023-07-16T08:50:03;14.27;;;5.68;;
53151;SDS011;39234;53.158;6.322;2023-07-16T08:52:29;13.38;;;4.82;;
53151;SDS011;39234;53.158;6.322;2023-07-16T08:54:55;10.77;;;5.07;;
53151;SDS011;39234;53.158;6.322;2023-07-16T08:57:21;12.10;;;5.00;;
53151;SDS011;39234;53.158;6.322;2023-07-16T08:59:48;12.00;;;4.95;;
53151;SDS011;39234;53.158;6.322;2023-07-16T09:02:18;11.60;;;5.55;;
53151;SDS011;39234;53.158;6.322;2023-07-16T09:04:47;14.80;;;5.78;;
53151;SDS011;39234;53.158;6.322;2023-07-16T09:07:14;9.75;;;5.60;;
53151;SDS011;39234;53.158;6.322;2023-07-16T09:09:41;13.25;;;4.60;;
53151;SDS011;39234;53.158;6.322;2023-07-16T09:12:10;16.70;;;5.32;;
53151;SDS011;39234;53.158;6.322;2023-07-16T09:14:42;15.10;;;4.30;;
53151;SDS011;39234;53.158;6.322;2023-07-16T09:17:09;13.95;;;4.65;;
53151;SDS011;39234;53.158;6.322;2023-07-16T09:19:35;15.43;;;5.00;;
53151;SDS011;39234;53.158;6.322;2023-07-16T09:22:01;11.77;;;4.55;;
53151;SDS011;39234;53.158;6.322;2023-07-16T09:24:28;10.45;;;5.05;;
53151;SDS011;39234;53.158;6.322;2023-07-16T09:26:54;11.85;;;4.80;;
53151;SDS011;39234;53.158;6.322;2023-07-16T09:29:21;10.10;;;4.55;;
53151;SDS011;39234;53.158;6.322;2023-07-16T09:31:57;11.52;;;4.25;;
53151;SDS011;39234;53.158;6.322;2023-07-16T09:34:26;8.75;;;4.38;;
53151;SDS011;39234;53.158;6.322;2023-07-16T09:36:53;12.60;;;4.97;;
53151;SDS011;39234;53.158;6.322;2023-07-16T09:39:19;12.77;;;4.22;;
53151;SDS011;39234;53.158;6.322;2023-07-16T09:41:48;12.25;;;4.88;;
53151;SDS011;39234;53.158;6.322;2023-07-16T09:44:15;11.73;;;4.55;;
53151;SDS011;39234;53.158;6.322;2023-07-16T09:46:41;12.98;;;4.93;;
53151;SDS011;39234;53.158;6.322;2023-07-16T09:49:08;10.73;;;4.32;;
53151;SDS011;39234;53.158;6.322;2023-07-16T09:51:35;14.40;;;5.15;;
53151;SDS011;39234;53.158;6.322;2023-07-16T09:54:02;10.25;;;3.80;;
53151;SDS011;39234;53.158;6.322;2023-07-16T09:56:31;11.00;;;5.15;;
53151;SDS011;39234;53.158;6.322;2023-07-16T09:59:02;9.95;;;4.00;;
53151;SDS011;39234;53.158;6.322;2023-07-16T10:01:30;12.30;;;4.75;;
53151;SDS011;39234;53.158;6.322;2023-07-16T10:03:56;9.77;;;3.78;;
53151;SDS011;39234;53.158;6.322;2023-07-16T10:06:22;8.65;;;3.83;;
53151;SDS011;39234;53.158;6.322;2023-07-16T10:08:49;10.15;;;3.75;;
53151;SDS011;39234;53.158;6.322;2023-07-16T10:11:15;10.63;;;4.20;;
53151;SDS011;39234;53.158;6.322;2023-07-16T10:13:42;10.10;;;4.25;;
53151;SDS011;39234;53.158;6.322;2023-07-16T10:16:08;13.23;;;4.47;;
53151;SDS011;39234;53.158;6.322;2023-07-16T10:18:52;13.85;;;4.80;;
53151;SDS011;39234;53.158;6.322;2023-07-16T10:21:24;10.35;;;4.78;;
53151;SDS011;39234;53.158;6.322;2023-07-16T10:23:57;8.10;;;4.05;;
53151;SDS011;39234;53.158;6.322;2023-07-16T10:26:27;10.65;;;4.25;;
53151;SDS011;39234;53.158;6.322;2023-07-16T10:28:54;14.20;;;4.28;;
53151;SDS011;39234;53.158;6.322;2023-07-16T10:31:24;16.40;;;4.85;;
53151;SDS011;39234;53.158;6.322;2023-07-16T10:34:00;15.48;;;5.30;;
53151;SDS011;39234;53.158;6.322;2023-07-16T10:36:30;14.00;;;5.45;;
53151;SDS011;39234;53.158;6.322;2023-07-16T10:39:05;15.40;;;5.45;;
53151;SDS011;39234;53.158;6.322;2023-07-16T10:41:31;11.18;;;5.13;;
53151;SDS011;39234;53.158;6.322;2023-07-16T10:44:00;11.55;;;5.07;;
53151;SDS011;39234;53.158;6.322;2023-07-16T10:46:27;8.93;;;4.30;;
53151;SDS011;39234;53.158;6.322;2023-07-16T10:48:53;14.90;;;5.22;;
53151;SDS011;39234;53.158;6.322;2023-07-16T10:51:24;14.60;;;5.38;;
53151;SDS011;39234;53.158;6.322;2023-07-16T10:53:51;13.02;;;4.50;;
53151;SDS011;39234;53.158;6.322;2023-07-16T10:56:16;10.88;;;5.30;;
53151;SDS011;39234;53.158;6.322;2023-07-16T10:58:44;11.40;;;4.47;;
53151;SDS011;39234;53.158;6.322;2023-07-16T11:01:10;8.80;;;4.90;;
53151;SDS011;39234;53.158;6.322;2023-07-16T11:03:36;9.95;;;3.65;;
53151;SDS011;39234;53.158;6.322;2023-07-16T11:06:08;12.95;;;3.80;;
53151;SDS011;39234;53.158;6.322;2023-07-16T11:08:36;13.27;;;4.20;;
53151;SDS011;39234;53.158;6.322;2023-07-16T11:11:02;9.38;;;4.20;;
53151;SDS011;39234;53.158;6.322;2023-07-16T11:13:29;11.88;;;4.78;;
53151;SDS011;39234;53.158;6.322;2023-07-16T11:15:57;8.52;;;3.85;;
53151;SDS011;39234;53.158;6.322;2023-07-16T11:18:31;10.40;;;4.00;;
53151;SDS011;39234;53.158;6.322;2023-07-16T11:20:58;11.65;;;4.30;;
53151;SDS011;39234;53.158;6.322;2023-07-16T11:23:24;14.00;;;4.75;;
53151;SDS011;39234;53.158;6.322;2023-07-16T11:25:51;10.80;;;4.40;;
53151;SDS011;39234;53.158;6.322;2023-07-16T11:28:17;12.75;;;4.30;;
53151;SDS011;39234;53.158;6.322;2023-07-16T11:30:43;12.27;;;4.63;;
53151;SDS011;39234;53.158;6.322;2023-07-16T11:33:12;11.85;;;3.80;;
53151;SDS011;39234;53.158;6.322;2023-07-16T11:35:38;10.13;;;3.92;;
53151;SDS011;39234;53.158;6.322;2023-07-16T11:38:05;10.77;;;3.92;;
53151;SDS011;39234;53.158;6.322;2023-07-16T11:40:33;11.43;;;3.78;;
53151;SDS011;39234;53.158;6.322;2023-07-16T11:43:07;12.32;;;4.10;;
53151;SDS011;39234;53.158;6.322;2023-07-16T11:45:35;13.75;;;4.18;;
53151;SDS011;39234;53.158;6.322;2023-07-16T11:48:01;12.07;;;4.28;;
53151;SDS011;39234;53.158;6.322;2023-07-16T11:50:28;11.15;;;4.35;;
53151;SDS011;39234;53.158;6.322;2023-07-16T11:52:55;14.40;;;5.13;;
53151;SDS011;39234;53.158;6.322;2023-07-16T11:55:26;13.43;;;5.03;;
53151;SDS011;39234;53.158;6.322;2023-07-16T11:57:52;13.55;;;5.18;;
53151;SDS011;39234;53.158;6.322;2023-07-16T12:00:18;12.07;;;4.63;;
53151;SDS011;39234;53.158;6.322;2023-07-16T12:02:44;10.80;;;5.00;;
53151;SDS011;39234;53.158;6.322;2023-07-16T12:05:16;11.52;;;4.70;;
53151;SDS011;39234;53.158;6.322;2023-07-16T12:07:43;10.63;;;4.70;;
53151;SDS011;39234;53.158;6.322;2023-07-16T12:10:08;10.55;;;5.00;;
53151;SDS011;39234;53.158;6.322;2023-07-16T12:12:34;12.52;;;5.07;;
53151;SDS011;39234;53.158;6.322;2023-07-16T12:15:03;12.25;;;5.30;;
53151;SDS011;39234;53.158;6.322;2023-07-16T12:17:30;14.15;;;5.32;;
53151;SDS011;39234;53.158;6.322;2023-07-16T12:19:55;10.95;;;4.65;;
53151;SDS011;39234;53.158;6.322;2023-07-16T12:22:21;13.27;;;4.97;;
53151;SDS011;39234;53.158;6.322;2023-07-16T12:24:48;14.75;;;5.28;;
53151;SDS011;39234;53.158;6.322;2023-07-16T12:27:14;14.35;;;4.93;;
53151;SDS011;39234;53.158;6.322;2023-07-16T12:29:41;13.98;;;5.05;;
53151;SDS011;39234;53.158;6.322;2023-07-16T12:32:07;13.20;;;5.05;;
53151;SDS011;39234;53.158;6.322;2023-07-16T12:34:33;13.05;;;4.57;;
53151;SDS011;39234;53.158;6.322;2023-07-16T12:36:59;13.55;;;4.22;;
53151;SDS011;39234;53.158;6.322;2023-07-16T12:39:25;6.93;;;3.63;;
53151;SDS011;39234;53.158;6.322;2023-07-16T12:41:51;10.52;;;4.18;;
53151;SDS011;39234;53.158;6.322;2023-07-16T12:44:16;10.60;;;3.90;;
53151;SDS011;39234;53.158;6.322;2023-07-16T12:46:42;10.20;;;4.15;;
53151;SDS011;39234;53.158;6.322;2023-07-16T12:49:08;12.57;;;4.50;;
53151;SDS011;39234;53.158;6.322;2023-07-16T12:51:34;10.52;;;3.80;;
53151;SDS011;39234;53.158;6.322;2023-07-16T12:53:59;11.35;;;4.07;;
53151;SDS011;39234;53.158;6.322;2023-07-16T12:56:28;12.77;;;4.68;;
53151;SDS011;39234;53.158;6.322;2023-07-16T12:58:53;11.52;;;4.40;;
53151;SDS011;39234;53.158;6.322;2023-07-16T13:01:19;11.63;;;4.13;;
53151;SDS011;39234;53.158;6.322;2023-07-16T13:03:45;15.40;;;5.65;;
53151;SDS011;39234;53.158;6.322;2023-07-16T13:06:11;12.35;;;4.35;;
53151;SDS011;39234;53.158;6.322;2023-07-16T13:08:36;15.35;;;4.78;;
53151;SDS011;39234;53.158;6.322;2023-07-16T13:11:02;12.07;;;4.82;;
53151;SDS011;39234;53.158;6.322;2023-07-16T13:13:28;15.75;;;4.63;;
53151;SDS011;39234;53.158;6.322;2023-07-16T13:15:54;19.88;;;6.22;;
53151;SDS011;39234;53.158;6.322;2023-07-16T13:18:20;17.30;;;4.55;;
53151;SDS011;39234;53.158;6.322;2023-07-16T13:20:46;14.95;;;4.20;;
53151;SDS011;39234;53.158;6.322;2023-07-16T13:23:12;12.88;;;3.85;;
53151;SDS011;39234;53.158;6.322;2023-07-16T13:25:38;11.23;;;3.05;;
53151;SDS011;39234;53.158;6.322;2023-07-16T13:28:07;12.60;;;2.88;;
53151;SDS011;39234;53.158;6.322;2023-07-16T13:30:33;12.45;;;3.05;;
53151;SDS011;39234;53.158;6.322;2023-07-16T13:32:59;13.85;;;3.35;;
53151;SDS011;39234;53.158;6.322;2023-07-16T13:35:26;13.27;;;3.22;;
53151;SDS011;39234;53.158;6.322;2023-07-16T13:37:52;10.85;;;2.45;;
53151;SDS011;39234;53.158;6.322;2023-07-16T13:40:18;12.05;;;3.97;;
53151;SDS011;39234;53.158;6.322;2023-07-16T13:42:46;9.80;;;2.55;;
53151;SDS011;39234;53.158;6.322;2023-07-16T13:45:12;16.23;;;2.63;;
53151;SDS011;39234;53.158;6.322;2023-07-16T13:47:38;9.38;;;2.88;;
53151;SDS011;39234;53.158;6.322;2023-07-16T13:50:04;11.63;;;2.50;;
53151;SDS011;39234;53.158;6.322;2023-07-16T13:52:30;11.77;;;2.30;;
53151;SDS011;39234;53.158;6.322;2023-07-16T13:54:56;10.65;;;2.45;;
53151;SDS011;39234;53.158;6.322;2023-07-16T13:57:22;16.02;;;2.88;;
53151;SDS011;39234;53.158;6.322;2023-07-16T13:59:47;12.98;;;2.90;;
53151;SDS011;39234;53.158;6.322;2023-07-16T14:02:13;13.80;;;2.50;;
53151;SDS011;39234;53.158;6.322;2023-07-16T14:04:39;12.52;;;2.55;;
53151;SDS011;39234;53.158;6.322;2023-07-16T14:07:04;14.15;;;2.13;;
53151;SDS011;39234;53.158;6.322;2023-07-16T14:09:30;12.60;;;3.47;;
53151;SDS011;39234;53.158;6.322;2023-07-16T14:11:56;10.32;;;2.38;;
53151;SDS011;39234;53.158;6.322;2023-07-16T14:14:22;10.90;;;2.53;;
53151;SDS011;39234;53.158;6.322;2023-07-16T14:16:48;7.80;;;2.00;;
53151;SDS011;39234;53.158;6.322;2023-07-16T14:19:13;10.18;;;2.97;;
53151;SDS011;39234;53.158;6.322;2023-07-16T14:21:39;11.38;;;2.30;;
53151;SDS011;39234;53.158;6.322;2023-07-16T14:24:05;8.75;;;1.80;;
53151;SDS011;39234;53.158;6.322;2023-07-16T14:26:32;9.70;;;2.45;;
53151;SDS011;39234;53.158;6.322;2023-07-16T14:28:58;10.68;;;2.50;;
53151;SDS011;39234;53.158;6.322;2023-07-16T14:31:24;14.00;;;3.05;;
53151;SDS011;39234;53.158;6.322;2023-07-16T14:33:50;11.30;;;2.28;;
53151;SDS011;39234;53.158;6.322;2023-07-16T14:36:16;7.95;;;2.13;;
53151;SDS011;39234;53.158;6.322;2023-07-16T14:38:42;10.85;;;2.70;;
53151;SDS011;39234;53.158;6.322;2023-07-16T14:41:08;10.45;;;2.40;;